sensor_id;sensor_type;location;lat;lon;timestamp;pressure;altitude;pressure_sealevel;temperature;humidity
35806;BME280;21925;44.608;11.580;2022-08-21T00:02:26;101147.56;;;27.91;81.57
35806;BME280;21925;44.608;11.580;2022-08-21T00:04:52;101141.22;;;27.87;83.09
35806;BME280;21925;44.608;11.580;2022-08-21T00:07:20;101133.63;;;27.62;85.22
35806;BME280;21925;44.608;11.580;2022-08-21T00:09:46;101139.97;;;27.42;87.58
35806;BME280;21925;44.608;11.580;2022-08-21T00:12:12;101142.88;;;27.38;87.55
35806;BME280;21925;44.608;11.580;2022-08-21T00:14:37;101137.34;;;27.35;86.95
35806;BME280;21925;44.608;11.580;2022-08-21T00:17:04;101143.56;;;27.17;88.41
35806;BME280;21925;44.608;11.580;2022-08-21T00:19:31;101138.78;;;27.02;86.81
35806;BME280;21925;44.608;11.580;2022-08-21T00:21:56;101142.31;;;27.18;84.30
35806;BME280;21925;44.608;11.580;2022-08-21T00:24:23;101137.56;;;27.28;82.35
35806;BME280;21925;44.608;11.580;2022-08-21T00:26:50;101149.41;;;27.35;85.01
35806;BME280;21925;44.608;11.580;2022-08-21T00:29:17;101141.63;;;27.51;84.41
35806;BME280;21925;44.608;11.580;2022-08-21T00:31:43;101155.47;;;27.58;83.15
35806;BME280;21925;44.608;11.580;2022-08-21T00:34:10;101149.81;;;27.58;82.62
35806;BME280;21925;44.608;11.580;2022-08-21T00:36:36;101156.06;;;27.66;82.39
35806;BME280;21925;44.608;11.580;2022-08-21T00:39:03;101158.88;;;27.66;82.48
35806;BME280;21925;44.608;11.580;2022-08-21T00:41:30;101148.53;;;27.38;84.51
35806;BME280;21925;44.608;11.580;2022-08-21T00:43:56;101150.75;;;27.43;83.48
35806;BME280;21925;44.608;11.580;2022-08-21T00:46:21;101157.84;;;27.23;85.72
35806;BME280;21925;44.608;11.580;2022-08-21T00:48:47;101141.53;;;27.05;87.39
35806;BME280;21925;44.608;11.580;2022-08-21T00:51:20;101149.06;;;27.33;85.97
35806;BME280;21925;44.608;11.580;2022-08-21T00:53:50;101143.91;;;27.32;86.31
35806;BME280;21925;44.608;11.580;2022-08-21T00:56:18;101136.22;;;27.07;88.17
35806;BME280;21925;44.608;11.580;2022-08-21T00:58:44;101125.53;;;27.15;87.16
35806;BME280;21925;44.608;11.580;2022-08-21T01:01:11;101139.72;;;27.11;88.47
35806;BME280;21925;44.608;11.580;2022-08-21T01:03:38;101147.13;;;26.93;87.04
35806;BME280;21925;44.608;11.580;2022-08-21T01:06:05;101122.94;;;27.08;86.44
35806;BME280;21925;44.608;11.580;2022-08-21T01:08:32;101124.53;;;27.21;85.23
35806;BME280;21925;44.608;11.580;2022-08-21T01:10:58;101132.97;;;27.21;84.61
35806;BME280;21925;44.608;11.580;2022-08-21T01:13:25;101126.66;;;27.17;85.07
35806;BME280;21925;44.608;11.580;2022-08-21T01:15:55;101141.06;;;27.44;83.61
35806;BME280;21925;44.608;11.580;2022-08-21T01:18:23;101134.31;;;27.29;83.17
35806;BME280;21925;44.608;11.580;2022-08-21T01:21:17;101139.97;;;27.29;82.83
35806;BME280;21925;44.608;11.580;2022-08-21T01:23:45;101134.66;;;27.31;82.09
35806;BME280;21925;44.608;11.580;2022-08-21T01:26:13;101127.13;;;27.28;81.36
35806;BME280;21925;44.608;11.580;2022-08-21T01:28:52;101131.16;;;27.27;80.96
35806;BME280;21925;44.608;11.580;2022-08-21T01:31:22;101130.25;;;27.30;80.13
35806;BME280;21925;44.608;11.580;2022-08-21T01:33:48;101132.97;;;27.21;79.58
35806;BME280;21925;44.608;11.580;2022-08-21T01:36:14;101126.19;;;27.06;79.99
35806;BME280;21925;44.608;11.580;2022-08-21T01:38:40;101129.75;;;26.82;80.59
35806;BME280;21925;44.608;11.580;2022-08-21T01:41:05;101142.50;;;26.46;83.30
35806;BME280;21925;44.608;11.580;2022-08-21T01:43:31;101121.84;;;26.36;84.89
35806;BME280;21925;44.608;11.580;2022-08-21T01:45:56;101129.53;;;26.20;86.55
35806;BME280;21925;44.608;11.580;2022-08-21T01:48:22;101132.13;;;25.98;88.55
35806;BME280;21925;44.608;11.580;2022-08-21T01:50:48;101138.16;;;26.13;88.76
35806;BME280;21925;44.608;11.580;2022-08-21T01:53:13;101112.03;;;26.00;87.99
35806;BME280;21925;44.608;11.580;2022-08-21T01:55:42;101125.72;;;25.98;87.67
35806;BME280;21925;44.608;11.580;2022-08-21T01:58:07;101125.19;;;26.03;87.99
35806;BME280;21925;44.608;11.580;2022-08-21T02:00:33;101126.38;;;26.18;85.86
35806;BME280;21925;44.608;11.580;2022-08-21T02:02:59;101120.69;;;26.05;86.32
35806;BME280;21925;44.608;11.580;2022-08-21T02:05:24;101120.81;;;26.30;84.42
35806;BME280;21925;44.608;11.580;2022-08-21T02:07:54;101123.50;;;26.34;83.78
35806;BME280;21925;44.608;11.580;2022-08-21T02:10:27;101130.47;;;26.45;83.83
35806;BME280;21925;44.608;11.580;2022-08-21T02:12:54;101120.13;;;26.55;83.13
35806;BME280;21925;44.608;11.580;2022-08-21T02:15:20;101114.16;;;26.53;82.38
35806;BME280;21925;44.608;11.580;2022-08-21T02:17:50;101071.63;;;26.22;81.79
35806;BME280;21925;44.608;11.580;2022-08-21T02:20:24;101121.25;;;26.57;82.70
35806;BME280;21925;44.608;11.580;2022-08-21T02:22:50;101121.84;;;26.64;81.29
35806;BME280;21925;44.608;11.580;2022-08-21T02:25:17;101124.78;;;26.61;82.27
35806;BME280;21925;44.608;11.580;2022-08-21T02:27:45;101121.56;;;26.47;82.98
35806;BME280;21925;44.608;11.580;2022-08-21T02:30:16;101117.88;;;26.34;84.51
35806;BME280;21925;44.608;11.580;2022-08-21T02:32:43;101125.28;;;25.99;84.37
35806;BME280;21925;44.608;11.580;2022-08-21T02:35:10;101112.88;;;26.13;82.56
35806;BME280;21925;44.608;11.580;2022-08-21T02:38:04;101123.34;;;26.12;83.55
35806;BME280;21925;44.608;11.580;2022-08-21T02:40:32;101112.25;;;26.05;82.05
35806;BME280;21925;44.608;11.580;2022-08-21T02:42:59;101124.06;;;26.00;83.82
35806;BME280;21925;44.608;11.580;2022-08-21T02:45:26;101125.13;;;25.90;84.68
35806;BME280;21925;44.608;11.580;2022-08-21T02:47:59;101123.63;;;25.86;83.05
35806;BME280;21925;44.608;11.580;2022-08-21T02:50:27;101127.16;;;25.90;81.16
35806;BME280;21925;44.608;11.580;2022-08-21T02:52:53;101131.00;;;25.64;84.51
35806;BME280;21925;44.608;11.580;2022-08-21T02:55:20;101123.97;;;25.72;86.82
35806;BME280;21925;44.608;11.580;2022-08-21T02:57:46;101090.44;;;25.97;83.51
35806;BME280;21925;44.608;11.580;2022-08-21T03:00:13;101129.63;;;26.16;83.60
35806;BME280;21925;44.608;11.580;2022-08-21T03:02:39;101119.88;;;26.21;82.88
35806;BME280;21925;44.608;11.580;2022-08-21T03:05:08;101121.16;;;26.04;84.41
35806;BME280;21925;44.608;11.580;2022-08-21T03:07:34;101115.44;;;26.07;83.24
35806;BME280;21925;44.608;11.580;2022-08-21T03:10:00;101112.66;;;26.20;83.99
35806;BME280;21925;44.608;11.580;2022-08-21T03:12:26;101121.03;;;26.07;84.47
35806;BME280;21925;44.608;11.580;2022-08-21T03:14:52;101125.19;;;26.03;85.27
35806;BME280;21925;44.608;11.580;2022-08-21T03:17:17;101120.38;;;26.03;84.99
35806;BME280;21925;44.608;11.580;2022-08-21T03:19:43;101092.53;;;25.93;85.03
35806;BME280;21925;44.608;11.580;2022-08-21T03:22:08;101115.28;;;26.27;84.33
35806;BME280;21925;44.608;11.580;2022-08-21T03:24:34;101115.78;;;26.09;84.63
35806;BME280;21925;44.608;11.580;2022-08-21T03:26:59;101122.53;;;26.12;85.88
35806;BME280;21925;44.608;11.580;2022-08-21T03:29:25;101126.06;;;26.16;85.04
35806;BME280;21925;44.608;11.580;2022-08-21T03:31:51;101127.63;;;26.17;84.60
35806;BME280;21925;44.608;11.580;2022-08-21T03:34:18;101111.69;;;25.98;87.05
35806;BME280;21925;44.608;11.580;2022-08-21T03:36:44;101117.81;;;26.09;85.49
35806;BME280;21925;44.608;11.580;2022-08-21T03:39:10;101113.94;;;26.03;85.50
35806;BME280;21925;44.608;11.580;2022-08-21T03:41:35;101129.72;;;26.13;85.75
35806;BME280;21925;44.608;11.580;2022-08-21T03:44:01;101120.16;;;26.10;85.44
35806;BME280;21925;44.608;11.580;2022-08-21T03:46:27;101128.25;;;26.08;85.22
35806;BME280;21925;44.608;11.580;2022-08-21T03:48:52;101128.28;;;25.92;87.39
35806;BME280;21925;44.608;11.580;2022-08-21T03:51:18;101114.34;;;25.89;87.08
35806;BME280;21925;44.608;11.580;2022-08-21T03:53:44;101131.88;;;25.93;87.55
35806;BME280;21925;44.608;11.580;2022-08-21T03:56:10;101125.66;;;25.85;86.25
35806;BME280;21925;44.608;11.580;2022-08-21T03:58:36;101119.06;;;25.92;86.50
35806;BME280;21925;44.608;11.580;2022-08-21T04:01:04;101121.88;;;25.92;86.12
35806;BME280;21925;44.608;11.580;2022-08-21T04:03:33;101119.34;;;25.81;86.51
35806;BME280;21925;44.608;11.580;2022-08-21T04:05:59;101115.50;;;25.76;86.40
35806;BME280;21925;44.608;11.580;2022-08-21T04:08:25;101119.78;;;25.80;86.32
35806;BME280;21925;44.608;11.580;2022-08-21T04:10:53;101123.47;;;25.77;86.10
35806;BME280;21925;44.608;11.580;2022-08-21T04:13:21;101114.88;;;25.68;86.82
35806;BME280;21925;44.608;11.580;2022-08-21T04:15:47;101095.28;;;25.65;84.41
35806;BME280;21925;44.608;11.580;2022-08-21T04:18:13;101121.53;;;25.90;82.85
35806;BME280;21925;44.608;11.580;2022-08-21T04:20:40;101128.94;;;25.84;84.22
35806;BME280;21925;44.608;11.580;2022-08-21T04:23:06;101116.34;;;25.57;86.86
35806;BME280;21925;44.608;11.580;2022-08-21T04:25:32;101117.69;;;25.68;85.86
35806;BME280;21925;44.608;11.580;2022-08-21T04:27:58;101124.00;;;25.56;86.95
35806;BME280;21925;44.608;11.580;2022-08-21T04:30:24;101129.78;;;25.65;86.04
35806;BME280;21925;44.608;11.580;2022-08-21T04:32:50;101135.03;;;25.63;86.05
35806;BME280;21925;44.608;11.580;2022-08-21T04:35:21;101126.44;;;25.54;86.54
35806;BME280;21925;44.608;11.580;2022-08-21T04:37:47;101107.59;;;25.39;85.20
35806;BME280;21925;44.608;11.580;2022-08-21T04:40:16;101134.59;;;25.49;86.64
35806;BME280;21925;44.608;11.580;2022-08-21T04:42:49;101138.28;;;25.30;86.19
35806;BME280;21925;44.608;11.580;2022-08-21T04:45:24;101141.28;;;25.39;85.34
35806;BME280;21925;44.608;11.580;2022-08-21T04:47:52;101129.94;;;25.10;84.02
35806;BME280;21925;44.608;11.580;2022-08-21T04:50:18;101146.09;;;25.38;82.85
35806;BME280;21925;44.608;11.580;2022-08-21T04:53:02;101138.47;;;25.55;82.44
35806;BME280;21925;44.608;11.580;2022-08-21T04:55:28;101126.09;;;25.68;80.66
35806;BME280;21925;44.608;11.580;2022-08-21T04:57:55;101139.09;;;25.78;80.69
35806;BME280;21925;44.608;11.580;2022-08-21T05:00:22;101155.41;;;25.99;79.71
35806;BME280;21925;44.608;11.580;2022-08-21T05:02:51;101160.84;;;25.58;79.53
35806;BME280;21925;44.608;11.580;2022-08-21T05:05:20;101166.56;;;25.55;85.33
35806;BME280;21925;44.608;11.580;2022-08-21T05:07:46;101165.56;;;25.61;82.99
35806;BME280;21925;44.608;11.580;2022-08-21T05:10:13;101154.34;;;25.61;82.04
35806;BME280;21925;44.608;11.580;2022-08-21T05:12:41;101154.34;;;25.93;81.52
35806;BME280;21925;44.608;11.580;2022-08-21T05:15:07;101147.66;;;26.03;79.77
35806;BME280;21925;44.608;11.580;2022-08-21T05:17:33;101158.41;;;26.08;81.60
35806;BME280;21925;44.608;11.580;2022-08-21T05:19:59;101163.28;;;26.20;82.02
35806;BME280;21925;44.608;11.580;2022-08-21T05:22:24;101154.84;;;26.20;82.01
35806;BME280;21925;44.608;11.580;2022-08-21T05:24:51;101156.69;;;26.26;82.72
35806;BME280;21925;44.608;11.580;2022-08-21T05:27:17;101158.78;;;26.22;84.10
35806;BME280;21925;44.608;11.580;2022-08-21T05:29:43;101152.72;;;26.24;82.82
35806;BME280;21925;44.608;11.580;2022-08-21T05:32:13;101146.31;;;26.23;81.62
35806;BME280;21925;44.608;11.580;2022-08-21T05:34:38;101143.94;;;26.22;81.33
35806;BME280;21925;44.608;11.580;2022-08-21T05:37:05;101149.66;;;26.18;82.81
35806;BME280;21925;44.608;11.580;2022-08-21T05:39:31;101155.88;;;26.26;82.29
35806;BME280;21925;44.608;11.580;2022-08-21T05:41:56;101150.06;;;26.04;82.38
35806;BME280;21925;44.608;11.580;2022-08-21T05:44:22;101152.31;;;26.09;86.49
35806;BME280;21925;44.608;11.580;2022-08-21T05:46:48;101164.44;;;26.51;85.71
35806;BME280;21925;44.608;11.580;2022-08-21T05:49:14;101123.69;;;26.43;80.11
35806;BME280;21925;44.608;11.580;2022-08-21T05:51:40;101158.44;;;26.64;80.51
35806;BME280;21925;44.608;11.580;2022-08-21T05:54:07;101169.28;;;26.91;78.91
35806;BME280;21925;44.608;11.580;2022-08-21T05:56:33;101159.84;;;26.97;79.98
35806;BME280;21925;44.608;11.580;2022-08-21T05:58:58;101172.56;;;26.89;77.43
35806;BME280;21925;44.608;11.580;2022-08-21T06:01:24;101169.59;;;26.80;77.55
35806;BME280;21925;44.608;11.580;2022-08-21T06:03:50;101172.94;;;26.75;77.63
35806;BME280;21925;44.608;11.580;2022-08-21T06:06:16;101179.13;;;27.11;74.45
35806;BME280;21925;44.608;11.580;2022-08-21T06:08:42;101178.81;;;27.22;73.16
35806;BME280;21925;44.608;11.580;2022-08-21T06:11:08;101170.13;;;27.16;72.79
35806;BME280;21925;44.608;11.580;2022-08-21T06:13:35;101167.78;;;27.27;72.10
35806;BME280;21925;44.608;11.580;2022-08-21T06:18:28;101159.31;;;27.27;73.61
35806;BME280;21925;44.608;11.580;2022-08-21T06:20:53;101172.59;;;27.39;73.56
35806;BME280;21925;44.608;11.580;2022-08-21T06:23:19;101158.63;;;27.60;72.95
35806;BME280;21925;44.608;11.580;2022-08-21T06:25:44;101170.50;;;27.68;72.75
35806;BME280;21925;44.608;11.580;2022-08-21T06:28:10;101169.22;;;27.94;72.87
35806;BME280;21925;44.608;11.580;2022-08-21T06:30:38;101161.69;;;28.25;72.86
35806;BME280;21925;44.608;11.580;2022-08-21T06:33:05;101166.53;;;28.12;72.86
35806;BME280;21925;44.608;11.580;2022-08-21T06:35:31;101160.78;;;28.15;72.73
35806;BME280;21925;44.608;11.580;2022-08-21T06:37:57;101170.59;;;27.77;72.33
35806;BME280;21925;44.608;11.580;2022-08-21T06:40:23;101143.88;;;27.69;70.13
35806;BME280;21925;44.608;11.580;2022-08-21T06:42:49;101157.63;;;27.67;70.08
35806;BME280;21925;44.608;11.580;2022-08-21T06:45:15;101162.53;;;27.88;70.00
35806;BME280;21925;44.608;11.580;2022-08-21T06:47:41;101159.72;;;27.88;69.61
35806;BME280;21925;44.608;11.580;2022-08-21T06:50:07;101168.88;;;27.92;69.29
35806;BME280;21925;44.608;11.580;2022-08-21T06:52:34;101157.97;;;27.69;67.74
35806;BME280;21925;44.608;11.580;2022-08-21T06:55:00;101168.97;;;28.01;68.39
35806;BME280;21925;44.608;11.580;2022-08-21T06:57:25;101154.94;;;28.10;66.13
35806;BME280;21925;44.608;11.580;2022-08-21T06:59:51;101165.44;;;28.43;67.06
35806;BME280;21925;44.608;11.580;2022-08-21T07:02:17;101165.03;;;28.53;66.35
35806;BME280;21925;44.608;11.580;2022-08-21T07:04:43;101166.97;;;28.99;66.14
35806;BME280;21925;44.608;11.580;2022-08-21T07:07:09;101164.44;;;29.01;64.35
35806;BME280;21925;44.608;11.580;2022-08-21T07:09:34;101167.66;;;29.12;62.36
35806;BME280;21925;44.608;11.580;2022-08-21T07:12:00;101154.53;;;29.27;61.67
35806;BME280;21925;44.608;11.580;2022-08-21T07:14:27;101168.63;;;29.18;62.07
35806;BME280;21925;44.608;11.580;2022-08-21T07:16:52;101158.75;;;29.53;62.26
35806;BME280;21925;44.608;11.580;2022-08-21T07:19:18;101151.06;;;29.53;62.79
35806;BME280;21925;44.608;11.580;2022-08-21T07:21:44;101155.50;;;29.72;62.43
35806;BME280;21925;44.608;11.580;2022-08-21T07:24:09;101161.50;;;29.74;62.06
35806;BME280;21925;44.608;11.580;2022-08-21T07:26:36;101166.69;;;29.85;62.01
35806;BME280;21925;44.608;11.580;2022-08-21T07:29:02;101165.25;;;29.71;61.23
35806;BME280;21925;44.608;11.580;2022-08-21T07:31:28;101167.22;;;29.92;62.87
35806;BME280;21925;44.608;11.580;2022-08-21T07:33:53;101168.44;;;29.91;60.44
35806;BME280;21925;44.608;11.580;2022-08-21T07:36:19;101151.06;;;30.10;62.28
35806;BME280;21925;44.608;11.580;2022-08-21T07:38:45;101159.22;;;30.62;61.09
35806;BME280;21925;44.608;11.580;2022-08-21T07:41:25;101169.94;;;30.67;57.83
35806;BME280;21925;44.608;11.580;2022-08-21T07:43:52;101180.56;;;31.17;60.62
35806;BME280;21925;44.608;11.580;2022-08-21T07:46:17;101175.16;;;31.28;57.67
35806;BME280;21925;44.608;11.580;2022-08-21T07:48:43;101169.81;;;31.21;59.37
35806;BME280;21925;44.608;11.580;2022-08-21T07:51:11;101170.06;;;31.41;57.33
35806;BME280;21925;44.608;11.580;2022-08-21T07:53:38;101161.34;;;31.85;57.26
35806;BME280;21925;44.608;11.580;2022-08-21T07:56:05;101163.31;;;31.70;56.43
35806;BME280;21925;44.608;11.580;2022-08-21T07:58:31;101165.34;;;31.38;58.38
35806;BME280;21925;44.608;11.580;2022-08-21T08:00:57;101153.81;;;31.00;57.96
35806;BME280;21925;44.608;11.580;2022-08-21T08:03:23;101173.16;;;31.10;57.81
35806;BME280;21925;44.608;11.580;2022-08-21T08:05:49;101164.41;;;31.41;56.67
35806;BME280;21925;44.608;11.580;2022-08-21T08:08:15;101161.06;;;32.07;58.45
35806;BME280;21925;44.608;11.580;2022-08-21T08:10:41;101153.97;;;32.02;56.10
35806;BME280;21925;44.608;11.580;2022-08-21T08:13:07;101161.38;;;32.46;55.74
35806;BME280;21925;44.608;11.580;2022-08-21T08:15:32;101152.41;;;32.01;55.76
35806;BME280;21925;44.608;11.580;2022-08-21T08:17:58;101154.94;;;31.99;55.51
35806;BME280;21925;44.608;11.580;2022-08-21T08:20:25;101151.38;;;32.51;55.12
35806;BME280;21925;44.608;11.580;2022-08-21T08:22:55;101154.78;;;32.93;55.38
35806;BME280;21925;44.608;11.580;2022-08-21T08:25:22;101167.22;;;32.43;53.93
35806;BME280;21925;44.608;11.580;2022-08-21T08:27:48;101156.25;;;32.36;53.88
35806;BME280;21925;44.608;11.580;2022-08-21T08:30:15;101147.91;;;32.85;52.90
35806;BME280;21925;44.608;11.580;2022-08-21T08:32:41;101154.22;;;33.18;54.51
35806;BME280;21925;44.608;11.580;2022-08-21T08:35:07;101147.81;;;32.94;52.58
35806;BME280;21925;44.608;11.580;2022-08-21T08:37:33;101146.53;;;33.38;53.22
35806;BME280;21925;44.608;11.580;2022-08-21T08:39:59;101155.25;;;33.83;51.68
35806;BME280;21925;44.608;11.580;2022-08-21T08:42:34;101149.34;;;33.87;53.63
35806;BME280;21925;44.608;11.580;2022-08-21T08:45:12;101144.56;;;34.38;51.68
35806;BME280;21925;44.608;11.580;2022-08-21T08:47:42;101136.19;;;34.29;50.24
35806;BME280;21925;44.608;11.580;2022-08-21T08:50:33;101144.41;;;33.67;52.13
35806;BME280;21925;44.608;11.580;2022-08-21T08:53:18;101143.66;;;33.87;50.80
35806;BME280;21925;44.608;11.580;2022-08-21T08:55:46;101149.38;;;34.07;50.66
35806;BME280;21925;44.608;11.580;2022-08-21T08:58:27;101148.63;;;33.92;51.01
35806;BME280;21925;44.608;11.580;2022-08-21T09:00:56;101136.72;;;34.33;49.43
35806;BME280;21925;44.608;11.580;2022-08-21T09:03:23;101148.31;;;34.49;50.51
35806;BME280;21925;44.608;11.580;2022-08-21T09:06:01;101134.91;;;34.30;50.83
35806;BME280;21925;44.608;11.580;2022-08-21T09:08:49;101135.50;;;34.14;51.89
35806;BME280;21925;44.608;11.580;2022-08-21T09:11:29;101136.44;;;35.01;51.59
35806;BME280;21925;44.608;11.580;2022-08-21T09:20:09;101131.09;;;34.58;49.23
35806;BME280;21925;44.608;11.580;2022-08-21T09:22:41;101132.63;;;35.04;49.36
35806;BME280;21925;44.608;11.580;2022-08-21T09:27:43;101125.09;;;35.38;48.95
35806;BME280;21925;44.608;11.580;2022-08-21T09:30:10;101126.25;;;35.20;50.06
35806;BME280;21925;44.608;11.580;2022-08-21T09:32:37;101131.03;;;35.03;47.80
35806;BME280;21925;44.608;11.580;2022-08-21T09:37:35;101126.56;;;35.64;46.31
35806;BME280;21925;44.608;11.580;2022-08-21T09:43:10;101123.44;;;35.98;48.05
35806;BME280;21925;44.608;11.580;2022-08-21T09:45:43;101111.56;;;35.69;48.35
35806;BME280;21925;44.608;11.580;2022-08-21T09:48:22;101114.06;;;35.98;46.98
35806;BME280;21925;44.608;11.580;2022-08-21T09:50:49;101111.97;;;35.51;47.31
35806;BME280;21925;44.608;11.580;2022-08-21T09:53:25;101100.78;;;35.95;48.06
35806;BME280;21925;44.608;11.580;2022-08-21T09:56:14;101104.00;;;36.19;45.96
35806;BME280;21925;44.608;11.580;2022-08-21T09:58:59;101109.72;;;36.19;48.07
35806;BME280;21925;44.608;11.580;2022-08-21T10:01:25;101113.47;;;35.88;47.54
35806;BME280;21925;44.608;11.580;2022-08-21T10:04:33;101103.63;;;36.59;46.87
35806;BME280;21925;44.608;11.580;2022-08-21T10:07:11;101102.34;;;37.47;45.25
35806;BME280;21925;44.608;11.580;2022-08-21T10:09:38;101097.41;;;37.42;46.80
35806;BME280;21925;44.608;11.580;2022-08-21T10:17:14;101088.47;;;37.73;45.35
35806;BME280;21925;44.608;11.580;2022-08-21T10:19:51;101087.06;;;38.07;44.86
35806;BME280;21925;44.608;11.580;2022-08-21T10:28:02;101086.03;;;39.49;44.44
35806;BME280;21925;44.608;11.580;2022-08-21T10:30:48;101085.38;;;39.61;43.55
35806;BME280;21925;44.608;11.580;2022-08-21T10:33:29;101084.38;;;40.19;44.14
35806;BME280;21925;44.608;11.580;2022-08-21T10:41:11;101071.69;;;40.96;44.78
35806;BME280;21925;44.608;11.580;2022-08-21T10:43:43;101065.97;;;41.09;42.36
35806;BME280;21925;44.608;11.580;2022-08-21T10:48:58;101051.66;;;41.61;41.64
35806;BME280;21925;44.608;11.580;2022-08-21T10:54:42;101048.31;;;41.70;42.75
35806;BME280;21925;44.608;11.580;2022-08-21T10:57:19;101045.25;;;41.68;43.27
35806;BME280;21925;44.608;11.580;2022-08-21T10:59:55;101043.47;;;41.52;41.65
35806;BME280;21925;44.608;11.580;2022-08-21T11:02:26;101047.88;;;41.40;41.62
35806;BME280;21925;44.608;11.580;2022-08-21T11:05:40;101050.09;;;41.47;41.80
35806;BME280;21925;44.608;11.580;2022-08-21T11:08:00;101055.56;;;41.06;43.03
35806;BME280;21925;44.608;11.580;2022-08-21T11:10:37;101046.00;;;40.35;40.77
35806;BME280;21925;44.608;11.580;2022-08-21T11:13:12;101046.69;;;39.62;41.44
35806;BME280;21925;44.608;11.580;2022-08-21T11:18:38;101040.47;;;40.87;40.60
35806;BME280;21925;44.608;11.580;2022-08-21T11:23:39;101034.09;;;42.10;41.16
35806;BME280;21925;44.608;11.580;2022-08-21T11:26:13;101028.09;;;42.75;40.09
35806;BME280;21925;44.608;11.580;2022-08-21T11:29:04;101024.50;;;41.43;39.03
35806;BME280;21925;44.608;11.580;2022-08-21T11:37:03;101013.31;;;41.14;41.91
35806;BME280;21925;44.608;11.580;2022-08-21T11:42:21;101012.13;;;41.22;40.45
35806;BME280;21925;44.608;11.580;2022-08-21T11:48:04;101006.19;;;42.39;41.26
35806;BME280;21925;44.608;11.580;2022-08-21T11:50:35;101001.84;;;42.45;39.04
35806;BME280;21925;44.608;11.580;2022-08-21T11:58:30;100989.69;;;42.80;39.58
35806;BME280;21925;44.608;11.580;2022-08-21T12:01:05;100992.59;;;41.41;37.51
35806;BME280;21925;44.608;11.580;2022-08-21T12:03:35;100987.47;;;41.08;38.87
35806;BME280;21925;44.608;11.580;2022-08-21T12:06:13;100991.97;;;41.35;39.53
35806;BME280;21925;44.608;11.580;2022-08-21T12:08:42;100990.56;;;42.34;38.02
35806;BME280;21925;44.608;11.580;2022-08-21T12:19:13;100981.22;;;40.34;37.27
35806;BME280;21925;44.608;11.580;2022-08-21T12:24:43;100974.75;;;40.78;39.31
35806;BME280;21925;44.608;11.580;2022-08-21T12:27:20;100965.78;;;40.82;36.47
35806;BME280;21925;44.608;11.580;2022-08-21T12:29:56;100962.41;;;40.33;37.19
35806;BME280;21925;44.608;11.580;2022-08-21T12:32:28;100953.56;;;40.31;38.35
35806;BME280;21925;44.608;11.580;2022-08-21T12:35:01;100949.25;;;39.70;37.17
35806;BME280;21925;44.608;11.580;2022-08-21T12:37:41;100948.19;;;39.73;39.17
35806;BME280;21925;44.608;11.580;2022-08-21T12:40:18;100940.00;;;40.13;39.03
35806;BME280;21925;44.608;11.580;2022-08-21T12:42:48;100935.75;;;40.64;38.74
35806;BME280;21925;44.608;11.580;2022-08-21T12:45:19;100938.50;;;41.14;39.21
35806;BME280;21925;44.608;11.580;2022-08-21T12:47:50;100947.84;;;41.66;39.63
35806;BME280;21925;44.608;11.580;2022-08-21T12:50:40;100942.53;;;40.35;39.33
35806;BME280;21925;44.608;11.580;2022-08-21T12:53:15;100943.16;;;40.28;38.70
35806;BME280;21925;44.608;11.580;2022-08-21T12:55:44;100941.31;;;40.12;39.63
35806;BME280;21925;44.608;11.580;2022-08-21T12:58:24;100934.47;;;40.15;38.13
35806;BME280;21925;44.608;11.580;2022-08-21T13:01:06;100932.97;;;40.27;38.49
35806;BME280;21925;44.608;11.580;2022-08-21T13:03:36;100935.16;;;40.84;40.03
35806;BME280;21925;44.608;11.580;2022-08-21T13:06:04;100936.94;;;41.13;37.72
35806;BME280;21925;44.608;11.580;2022-08-21T13:08:33;100929.53;;;41.30;38.80
35806;BME280;21925;44.608;11.580;2022-08-21T13:11:04;100928.88;;;40.23;37.95
35806;BME280;21925;44.608;11.580;2022-08-21T13:13:31;100924.53;;;40.16;38.76
35806;BME280;21925;44.608;11.580;2022-08-21T13:16:04;100932.19;;;39.96;39.43
35806;BME280;21925;44.608;11.580;2022-08-21T13:18:33;100925.72;;;39.53;37.61
35806;BME280;21925;44.608;11.580;2022-08-21T13:21:05;100921.78;;;39.74;38.07
35806;BME280;21925;44.608;11.580;2022-08-21T13:23:31;100914.72;;;39.94;37.19
35806;BME280;21925;44.608;11.580;2022-08-21T13:25:57;100910.94;;;40.48;37.41
35806;BME280;21925;44.608;11.580;2022-08-21T13:28:23;100906.56;;;40.29;37.37
35806;BME280;21925;44.608;11.580;2022-08-21T13:30:54;100908.84;;;40.17;38.50
35806;BME280;21925;44.608;11.580;2022-08-21T13:33:25;100908.81;;;40.05;37.67
35806;BME280;21925;44.608;11.580;2022-08-21T13:36:07;100907.25;;;39.67;36.94
35806;BME280;21925;44.608;11.580;2022-08-21T13:38:36;100904.25;;;40.27;39.28
35806;BME280;21925;44.608;11.580;2022-08-21T13:41:05;100903.91;;;40.00;37.41
35806;BME280;21925;44.608;11.580;2022-08-21T13:43:36;100892.13;;;40.47;36.58
35806;BME280;21925;44.608;11.580;2022-08-21T13:46:09;100896.88;;;40.76;37.72
35806;BME280;21925;44.608;11.580;2022-08-21T13:48:36;100889.78;;;41.16;36.76
35806;BME280;21925;44.608;11.580;2022-08-21T13:51:03;100888.34;;;41.22;38.85
35806;BME280;21925;44.608;11.580;2022-08-21T13:53:35;100888.69;;;41.19;37.65
35806;BME280;21925;44.608;11.580;2022-08-21T13:56:03;100884.34;;;41.38;37.47
35806;BME280;21925;44.608;11.580;2022-08-21T14:04:07;100878.81;;;41.27;37.28
35806;BME280;21925;44.608;11.580;2022-08-21T14:06:40;100880.94;;;40.75;38.70
35806;BME280;21925;44.608;11.580;2022-08-21T14:11:46;100874.19;;;40.28;37.55